Schrunz, Liechtenstein
Current Conditions -  °F | °C
As of 12:50 PM on Thursday 23 Oct 2014 (Local Time) from LSZR Reporting Station
Broken Clouds Broken Clouds  
Wind Chill: 46°   Ceiling: 5000
Heat Index: 48°   Visibility: 6mi
Dew Point: 37°   Wind: 5mph
Humidity: 66%   Direction: 260°W
Pressure: 30.3"   Gusts: NA
Location:  47.08°N, 9.93°E
Report Text: LSZR 231050Z 26004KT 210V310 9999 SCT042 BKN050 09/03 Q1026 NOSIG RMK H
Loading
Personal Weather Stations






























Interactive Weather Map
Tropical Storm Tracking
New forecast layout! Learn more

10-Day Weather Forecast

Advertisements
Track Severe Weather on mobile